Date,TemperatureHighF,TemperatureAvgF,TemperatureLowF,DewpointHighF,DewpointAvgF,DewpointLowF,HumidityHigh,HumidityAvg,HumidityLow,PressureMaxIn,PressureMinIn,WindSpeedMaxMPH,WindSpeedAvgMPH,GustSpeedMaxMPH,PrecipitationSumIn
2013-3-1,87.2,78.3,72.2,72.0,69.6,68.0,87,75,57,29.98,29.85,12,4,17,0.00
2013-3-2,84.5,77.6,71.0,72.0,68.0,65.0,87,73,58,29.96,29.85,15,4,20,0.00
2013-3-3,85.3,78.1,71.7,74.0,70.3,67.0,86,77,65,29.98,29.87,8,2,14,0.00
2013-3-4,83.6,78.0,74.3,75.0,71.9,70.0,89,81,70,30.04,29.93,11,3,17,0.00
2013-3-5,80.2,76.6,74.0,72.0,69.3,65.0,90,78,68,30.08,29.98,10,2,14,0.01
2013-3-6,84.2,77.7,72.6,70.0,67.4,63.0,83,71,58,30.07,29.97,14,4,16,0.00
2013-3-7,86.9,78.9,72.6,75.0,71.8,69.0,90,79,66,30.04,29.95,9,2,13,0.09
2013-3-8,83.0,76.9,72.6,72.0,69.3,63.0,94,78,61,30.05,29.96,7,1,9,0.35
2013-3-9,82.8,75.1,70.8,71.0,68.0,65.0,89,79,63,30.04,29.95,7,1,11,0.02
2013-3-10,82.2,77.4,73.9,69.0,64.9,62.0,84,66,55,30.02,29.93,7,3,12,0.01
2013-3-11,83.3,77.5,74.2,66.0,63.6,62.0,69,63,52,30.02,29.93,10,3,15,0.00
2013-3-12,84.4,78.3,74.0,66.0,62.6,58.0,73,59,43,30.07,29.96,14,5,17,0.00
2013-3-13,84.2,78.1,75.0,67.0,62.0,58.0,72,58,45,30.03,29.93,15,6,21,0.00
2013-3-14,84.6,77.9,74.9,66.0,62.9,60.0,70,61,46,29.98,29.87,14,5,19,0.00
2013-3-15,86.3,78.7,72.0,67.0,64.2,61.0,79,62,46,30.01,29.89,8,2,12,0.00
2013-3-16,84.8,77.5,73.1,71.0,67.2,65.0,83,71,54,30.04,29.93,11,4,24,0.01
2013-3-17,84.0,78.4,74.3,72.0,69.6,67.0,84,74,60,30.08,29.97,16,8,23,0.01
2013-3-18,83.5,77.9,73.0,71.0,69.6,67.0,87,76,63,30.08,29.98,20,9,27,0.02
2013-3-19,83.3,78.0,73.1,73.0,71.2,69.0,90,79,69,30.02,29.90,19,8,23,0.08
2013-3-20,85.0,79.4,73.7,74.0,71.0,67.0,86,76,59,29.96,29.84,15,4,23,0.00
2013-3-21,93.5,82.1,76.1,74.0,70.8,69.0,82,70,47,29.96,29.81,12,3,19,0.00
2013-3-22,88.1,80.3,75.5,78.0,73.9,70.0,91,81,66,30.03,29.90,14,3,23,0.05
2013-3-23,86.8,80.2,75.7,77.0,74.6,73.0,92,83,70,30.06,29.94,13,4,19,0.00
2013-3-24,85.1,79.8,75.5,75.0,72.8,70.0,88,79,67,30.02,29.87,17,6,25,0.00
2013-3-25,85.5,80.2,74.4,76.0,72.0,69.0,86,76,60,29.99,29.86,17,5,23,0.00
2013-3-26,93.0,82.2,75.8,76.0,71.2,63.0,88,71,39,30.02,29.89,14,4,22,0.00
2013-3-27,89.5,80.7,73.8,77.0,73.0,67.0,88,78,47,30.03,29.92,10,3,17,0.00
2013-3-28,88.0,80.8,75.5,74.0,72.2,70.0,89,76,61,30.03,29.93,10,4,15,0.00
2013-3-29,78.1,75.7,72.5,73.0,70.5,68.0,93,84,76,30.11,29.96,12,4,17,0.46
2013-3-30,81.1,76.5,73.0,75.0,70.7,68.0,90,82,74,30.12,30.03,17,8,26,0.37
2013-3-31,80.1,76.1,73.0,74.0,72.1,70.0,94,87,78,30.12,30.04,19,8,29,0.57